Time;durP1;ratioP1;P1;durP2;ratioP2;P2;SDS_P1;SDS_P2;PMS_P1;PMS_P2;Temp;Humidity;BMP_temperature;BMP_pressure;BME280_temperature;BME280_humidity;BME280_pressure;Samples;Min_cycle;Max_cycle;Signal;HPM_P1;HPM_P2
2023/09/24 00:01:43;;;;;;;1.95;1.33;;;12.50;99.90;;;;;;5024593;28;20473;-66
2023/09/24 00:04:10;;;;;;;0.20;0.20;;;12.50;99.90;;;;;;5017559;28;20037;-66
2023/09/24 00:06:36;;;;;;;0.20;0.20;;;12.40;99.90;;;;;;5060607;28;20048;-65
2023/09/24 00:09:02;;;;;;;0.20;0.20;;;12.30;99.90;;;;;;5017393;28;20415;-65
2023/09/24 00:11:27;;;;;;;0.20;0.20;;;12.30;99.90;;;;;;5021438;28;20048;-66
2023/09/24 00:13:54;;;;;;;0.10;0.10;;;12.30;99.90;;;;;;5022106;28;20040;-65
2023/09/24 00:16:20;;;;;;;1.27;0.40;;;12.20;99.90;;;;;;5028444;28;20120;-65
2023/09/24 00:18:46;;;;;;;0.10;0.10;;;12.10;99.90;;;;;;5022852;28;20108;-65
2023/09/24 00:21:12;;;;;;;0.30;0.30;;;12.00;99.90;;;;;;5050667;28;20041;-65
2023/09/24 00:23:38;;;;;;;0.10;0.10;;;11.90;99.90;;;;;;5015603;28;20534;-65
2023/09/24 00:26:04;;;;;;;0.10;0.10;;;11.80;99.90;;;;;;5015735;28;20417;-65
2023/09/24 00:28:30;;;;;;;0.28;0.25;;;11.80;99.90;;;;;;5019471;28;20484;-65
2023/09/24 00:30:55;;;;;;;0.45;0.40;;;11.80;99.90;;;;;;5029666;28;20052;-65
2023/09/24 00:33:25;;;;;;;0.25;0.25;;;11.90;99.90;;;;;;5021038;28;20087;-65
2023/09/24 00:35:51;;;;;;;0.50;0.50;;;11.90;99.90;;;;;;5014801;28;20645;-65
2023/09/24 00:38:20;;;;;;;0.40;0.35;;;11.90;99.90;;;;;;5022627;28;20040;-65
2023/09/24 00:40:46;;;;;;;0.28;0.28;;;11.90;99.90;;;;;;5056338;28;20041;-65
2023/09/24 00:43:32;;;;;;;1.33;0.93;;;11.90;99.90;;;;;;5056882;28;20032;-65
2023/09/24 00:46:00;;;;;;;0.45;0.20;;;11.90;99.90;;;;;;5030528;28;20048;-66
2023/09/24 00:48:29;;;;;;;1.45;0.52;;;11.90;99.90;;;;;;5041747;28;20082;-65
2023/09/24 00:51:02;;;;;;;0.30;0.30;;;12.00;99.90;;;;;;5039179;28;20045;-65
2023/09/24 00:53:33;;;;;;;0.60;0.45;;;11.90;99.90;;;;;;5037651;28;20455;-65
2023/09/24 00:55:59;;;;;;;4.07;1.20;;;11.90;99.90;;;;;;5046622;28;20303;-65
2023/09/24 00:58:26;;;;;;;0.65;0.32;;;12.00;99.90;;;;;;5038704;28;20047;-66
2023/09/24 01:00:57;;;;;;;0.35;0.35;;;11.90;99.90;;;;;;5026204;28;20033;-65
2023/09/24 01:03:23;;;;;;;0.20;0.20;;;12.00;99.90;;;;;;5043172;28;20040;-65
2023/09/24 01:05:50;;;;;;;0.50;0.50;;;11.90;99.90;;;;;;5034945;28;20047;-65
2023/09/24 01:08:20;;;;;;;3.25;0.75;;;11.90;99.90;;;;;;5035450;28;20415;-65
2023/09/24 01:10:47;;;;;;;0.40;0.40;;;11.90;99.90;;;;;;5035992;28;20044;-65
2023/09/24 01:13:15;;;;;;;0.55;0.55;;;11.90;99.90;;;;;;5042335;28;20033;-65
2023/09/24 01:15:43;;;;;;;0.30;0.30;;;11.90;99.90;;;;;;5044683;28;20041;-66
2023/09/24 01:18:08;;;;;;;0.32;0.32;;;12.00;99.90;;;;;;5020944;28;20029;-65
2023/09/24 01:20:34;;;;;;;0.20;0.20;;;12.00;99.90;;;;;;5045195;28;20063;-65
2023/09/24 01:23:04;;;;;;;0.20;0.20;;;11.90;99.90;;;;;;5037391;28;20408;-66
2023/09/24 01:25:36;;;;;;;0.32;0.32;;;11.90;99.90;;;;;;5049892;28;20051;-65
2023/09/24 01:28:04;;;;;;;0.20;0.20;;;11.90;99.90;;;;;;5040968;28;20260;-65
2023/09/24 01:30:30;;;;;;;0.25;0.25;;;11.90;99.90;;;;;;5031662;28;20045;-65
2023/09/24 01:32:57;;;;;;;0.77;0.77;;;11.80;99.90;;;;;;5040352;28;20386;-65
2023/09/24 01:35:27;;;;;;;0.28;0.28;;;11.80;99.90;;;;;;5046347;28;20472;-65
2023/09/24 01:38:04;;;;;;;0.20;0.20;;;11.80;99.90;;;;;;5037018;28;20033;-65
2023/09/24 01:40:34;;;;;;;0.30;0.30;;;11.80;99.90;;;;;;5063317;28;20087;-65
2023/09/24 01:43:02;;;;;;;1.55;0.40;;;11.70;99.90;;;;;;5070396;28;20048;-65
2023/09/24 01:45:28;;;;;;;0.65;0.63;;;11.70;99.90;;;;;;5030884;28;20048;-65
2023/09/24 01:47:55;;;;;;;0.52;0.47;;;11.80;99.90;;;;;;5029665;28;20519;-65
2023/09/24 01:50:22;;;;;;;0.60;0.60;;;11.70;99.90;;;;;;5027105;28;20453;-65
2023/09/24 01:52:47;;;;;;;1.38;0.77;;;11.70;99.90;;;;;;4999311;28;20520;-65
2023/09/24 01:55:13;;;;;;;0.38;0.38;;;11.60;99.90;;;;;;5025788;28;20476;-65
2023/09/24 01:57:44;;;;;;;0.32;0.30;;;11.60;99.90;;;;;;5019468;28;20037;-65
2023/09/24 02:03:07;;;;;;;0.10;0.10;;;11.50;99.90;;;;;;5018737;28;20067;-65
2023/09/24 02:05:34;;;;;;;0.32;0.32;;;11.50;99.90;;;;;;5025958;28;20077;-65
2023/09/24 02:08:08;;;;;;;1.45;0.47;;;11.50;99.90;;;;;;5023071;28;21587;-65
2023/09/24 02:10:35;;;;;;;0.20;0.15;;;11.40;99.90;;;;;;5027349;28;20051;-65
2023/09/24 02:13:00;;;;;;;0.40;0.40;;;11.40;99.90;;;;;;5015428;28;20088;-65
2023/09/24 02:15:27;;;;;;;0.20;0.13;;;11.40;99.90;;;;;;5018701;28;20463;-66
2023/09/24 02:17:53;;;;;;;1.00;0.30;;;11.40;99.90;;;;;;5023731;28;20130;-65
2023/09/24 02:20:32;;;;;;;3.40;0.63;;;11.40;99.90;;;;;;5032650;28;20045;-65
2023/09/24 02:23:03;;;;;;;0.45;0.40;;;11.30;99.90;;;;;;5019764;28;20045;-65
2023/09/24 02:25:35;;;;;;;0.65;0.65;;;11.30;99.90;;;;;;5045841;28;20047;-65
2023/09/24 02:28:00;;;;;;;0.10;0.10;;;11.30;99.90;;;;;;5026909;28;20045;-65
2023/09/24 02:30:28;;;;;;;0.30;0.30;;;11.30;99.90;;;;;;5063139;28;20114;-65
2023/09/24 02:32:54;;;;;;;1.20;0.50;;;11.20;99.90;;;;;;5026848;28;20111;-66
2023/09/24 02:35:19;;;;;;;0.52;0.32;;;11.20;99.90;;;;;;5028725;28;20463;-65
2023/09/24 02:37:47;;;;;;;3.63;0.75;;;11.10;99.90;;;;;;5029649;28;20464;-66
2023/09/24 02:40:18;;;;;;;0.10;0.10;;;11.10;99.90;;;;;;5032850;28;20094;-65
2023/09/24 02:42:47;;;;;;;0.50;0.43;;;11.10;99.90;;;;;;5026980;28;20377;-66
2023/09/24 02:45:15;;;;;;;1.88;1.63;;;11.10;99.90;;;;;;5024852;28;20041;-66
2023/09/24 02:47:41;;;;;;;0.43;0.40;;;11.10;99.90;;;;;;5026375;28;20052;-66
2023/09/24 02:50:13;;;;;;;0.52;0.52;;;11.00;99.90;;;;;;5030691;28;20072;-66
2023/09/24 02:52:43;;;;;;;0.45;0.45;;;11.00;99.90;;;;;;5026373;28;20642;-66
2023/09/24 02:55:10;;;;;;;0.32;0.32;;;11.00;99.90;;;;;;5021495;28;20037;-66
2023/09/24 02:57:41;;;;;;;0.63;0.20;;;11.00;99.90;;;;;;5029916;28;20037;-66
2023/09/24 03:00:18;;;;;;;0.32;0.32;;;10.90;99.90;;;;;;5024884;28;20040;-66
2023/09/24 03:02:44;;;;;;;0.43;0.43;;;10.90;99.90;;;;;;5027101;28;20049;-66
2023/09/24 03:05:12;;;;;;;0.50;0.50;;;10.90;99.90;;;;;;5022052;28;20041;-66
2023/09/24 03:07:40;;;;;;;2.38;0.30;;;10.90;99.90;;;;;;5024713;28;20298;-66
2023/09/24 03:10:07;;;;;;;0.20;0.20;;;10.80;99.90;;;;;;5022646;28;20107;-65
2023/09/24 03:12:34;;;;;;;0.20;0.20;;;10.80;99.90;;;;;;5026512;28;20095;-65
2023/09/24 03:15:01;;;;;;;0.10;0.10;;;10.80;99.90;;;;;;5022954;28;20047;-66
2023/09/24 03:17:27;;;;;;;0.22;0.22;;;10.80;99.90;;;;;;5038762;28;20041;-65
2023/09/24 03:19:53;;;;;;;0.35;0.35;;;10.80;99.90;;;;;;5025328;28;20476;-66
2023/09/24 03:22:21;;;;;;;0.20;0.20;;;10.70;99.90;;;;;;5024366;28;20041;-66
2023/09/24 03:24:47;;;;;;;0.65;0.30;;;10.70;99.90;;;;;;5027774;28;20049;-66
2023/09/24 03:27:14;;;;;;;0.10;0.10;;;10.70;99.90;;;;;;5029759;28;20060;-66
2023/09/24 03:29:40;;;;;;;0.10;0.10;;;10.60;99.90;;;;;;5028778;28;20049;-66
2023/09/24 03:32:06;;;;;;;0.20;0.20;;;10.60;99.90;;;;;;5025258;28;20052;-66
2023/09/24 03:34:31;;;;;;;0.57;0.57;;;10.60;99.90;;;;;;5022054;28;20041;-66
2023/09/24 03:36:57;;;;;;;0.32;0.32;;;10.60;99.90;;;;;;5025256;28;20029;-66
2023/09/24 03:39:25;;;;;;;0.30;0.30;;;10.60;99.90;;;;;;5022024;28;20488;-66
2023/09/24 03:41:51;;;;;;;0.10;0.10;;;10.60;99.90;;;;;;5024138;28;20049;-66
2023/09/24 03:44:16;;;;;;;0.20;0.20;;;10.60;99.90;;;;;;5020736;28;20123;-66
2023/09/24 03:46:42;;;;;;;0.75;0.52;;;10.60;99.90;;;;;;5021596;28;20044;-66
2023/09/24 03:49:07;;;;;;;0.28;0.22;;;10.50;99.90;;;;;;5070113;28;20032;-66
2023/09/24 03:51:33;;;;;;;1.88;1.05;;;10.50;99.90;;;;;;5026924;28;20138;-67
2023/09/24 03:53:58;;;;;;;0.28;0.28;;;10.40;99.90;;;;;;5059639;28;20044;-67
2023/09/24 03:56:24;;;;;;;0.98;0.82;;;10.40;99.90;;;;;;5043055;28;20029;-67
2023/09/24 03:58:50;;;;;;;0.10;0.10;;;10.30;99.90;;;;;;5042938;28;20433;-67
2023/09/24 04:01:17;;;;;;;0.13;0.13;;;10.20;99.90;;;;;;5041244;28;20052;-67
2023/09/24 04:03:43;;;;;;;0.20;0.20;;;10.10;99.90;;;;;;5071441;28;20093;-66
2023/09/24 04:06:12;;;;;;;0.15;0.15;;;10.00;99.90;;;;;;5038950;28;20049;-66
2023/09/24 04:08:39;;;;;;;0.32;0.30;;;9.80;99.90;;;;;;5035556;28;20072;-66
2023/09/24 04:11:12;;;;;;;0.90;0.80;;;9.80;99.90;;;;;;5042350;28;20048;-66
2023/09/24 04:13:38;;;;;;;0.20;0.20;;;9.70;99.90;;;;;;5040413;28;20408;-66
2023/09/24 04:16:12;;;;;;;0.20;0.20;;;9.60;99.90;;;;;;5044576;28;20040;-67
2023/09/24 04:18:39;;;;;;;0.25;0.25;;;9.60;99.90;;;;;;5075384;28;20044;-66
2023/09/24 04:21:17;;;;;;;1.98;0.80;;;9.50;99.90;;;;;;5040125;28;20059;-66
2023/09/24 04:23:43;;;;;;;0.40;0.40;;;9.50;99.90;;;;;;5040745;28;20383;-67
2023/09/24 04:26:22;;;;;;;0.40;0.22;;;9.50;99.90;;;;;;5025075;28;20388;-66
2023/09/24 04:28:50;;;;;;;2.95;0.47;;;9.40;99.90;;;;;;5037583;28;20045;-66
2023/09/24 04:31:17;;;;;;;0.40;0.40;;;9.40;99.90;;;;;;5046008;28;20083;-66
2023/09/24 04:33:44;;;;;;;0.28;0.20;;;9.40;99.90;;;;;;5039839;28;20320;-66
2023/09/24 04:36:10;;;;;;;0.52;0.43;;;9.40;99.90;;;;;;5039533;28;20043;-66
2023/09/24 04:38:36;;;;;;;1.55;0.65;;;9.40;99.90;;;;;;5039793;28;20040;-67
2023/09/24 04:41:03;;;;;;;1.65;1.15;;;9.30;99.90;;;;;;5059417;28;20041;-66
2023/09/24 04:43:28;;;;;;;0.85;0.30;;;9.40;99.90;;;;;;5024373;28;20045;-67
2023/09/24 04:45:54;;;;;;;0.38;0.38;;;9.40;99.90;;;;;;5039284;28;20051;-66
2023/09/24 04:48:19;;;;;;;0.38;0.38;;;9.50;99.90;;;;;;5068630;28;20037;-66
2023/09/24 04:50:45;;;;;;;0.88;0.88;;;9.50;99.90;;;;;;5025875;28;20052;-66
2023/09/24 04:53:10;;;;;;;0.60;0.60;;;9.60;99.90;;;;;;5037501;28;20052;-67
2023/09/24 04:55:36;;;;;;;0.20;0.20;;;9.60;99.90;;;;;;5042608;28;20044;-66
2023/09/24 04:58:02;;;;;;;0.88;0.85;;;9.60;99.90;;;;;;5042349;28;20047;-66
2023/09/24 05:00:28;;;;;;;0.82;0.82;;;9.60;99.90;;;;;;5041562;28;20045;-66
2023/09/24 05:02:54;;;;;;;1.85;0.40;;;9.60;99.90;;;;;;5042756;28;20032;-67
2023/09/24 05:05:19;;;;;;;0.32;0.32;;;9.70;99.90;;;;;;5036220;28;20365;-66
2023/09/24 05:07:45;;;;;;;0.80;0.70;;;9.70;99.90;;;;;;5041608;28;20127;-67
2023/09/24 05:10:11;;;;;;;0.10;0.10;;;9.70;99.90;;;;;;5039498;28;20036;-67
2023/09/24 05:12:37;;;;;;;2.28;1.55;;;9.70;99.90;;;;;;5065664;28;20434;-67
2023/09/24 05:15:03;;;;;;;0.45;0.45;;;9.70;99.90;;;;;;5037213;28;20048;-67
2023/09/24 05:17:31;;;;;;;0.63;0.50;;;9.70;99.90;;;;;;5041022;28;20071;-67
2023/09/24 05:19:57;;;;;;;0.75;0.75;;;9.70;99.90;;;;;;5043370;28;20051;-67
2023/09/24 05:22:23;;;;;;;0.88;0.40;;;9.70;99.90;;;;;;5041187;28;20045;-66
2023/09/24 05:24:49;;;;;;;1.15;1.08;;;9.70;99.90;;;;;;5038106;28;20036;-66
2023/09/24 05:27:16;;;;;;;0.47;0.47;;;9.70;99.90;;;;;;5041172;28;20510;-66
2023/09/24 05:29:46;;;;;;;0.10;0.10;;;9.70;99.90;;;;;;5074716;28;20037;-66
2023/09/24 05:32:12;;;;;;;0.40;0.40;;;9.70;99.90;;;;;;5056207;28;20045;-66
2023/09/24 05:34:37;;;;;;;0.47;0.13;;;9.70;99.90;;;;;;5033752;28;20503;-66
2023/09/24 05:37:03;;;;;;;0.52;0.32;;;9.70;99.90;;;;;;5040459;28;20036;-66
2023/09/24 05:39:28;;;;;;;0.85;0.70;;;9.70;99.90;;;;;;5040661;28;20165;-66
2023/09/24 05:41:55;;;;;;;0.60;0.60;;;9.70;99.90;;;;;;5037186;28;20051;-66
2023/09/24 05:44:21;;;;;;;0.35;0.35;;;9.70;99.90;;;;;;5037861;28;20501;-67
2023/09/24 05:46:47;;;;;;;0.38;0.38;;;9.70;99.90;;;;;;5042022;28;20514;-66
2023/09/24 05:49:13;;;;;;;0.45;0.45;;;9.70;99.90;;;;;;5042435;28;20036;-66
2023/09/24 05:51:39;;;;;;;0.63;0.15;;;9.80;99.90;;;;;;5047678;28;20230;-67
2023/09/24 05:54:05;;;;;;;0.60;0.60;;;9.80;99.90;;;;;;5042856;28;20166;-66
2023/09/24 05:56:31;;;;;;;3.35;0.88;;;9.80;99.90;;;;;;5046932;28;20534;-67
2023/09/24 05:58:56;;;;;;;0.43;0.43;;;9.80;99.90;;;;;;5043817;28;21928;-67
2023/09/24 06:01:22;;;;;;;0.30;0.30;;;9.80;99.90;;;;;;5071969;28;20538;-66
2023/09/24 06:03:48;;;;;;;0.95;0.45;;;9.90;99.90;;;;;;5046694;28;20055;-67
2023/09/24 06:06:14;;;;;;;1.85;0.60;;;9.80;99.90;;;;;;5029640;28;20131;-67
2023/09/24 06:08:39;;;;;;;0.32;0.32;;;9.90;99.90;;;;;;5044232;28;20131;-66
2023/09/24 06:11:05;;;;;;;0.20;0.20;;;9.90;99.90;;;;;;5067430;28;20516;-67
2023/09/24 06:13:32;;;;;;;0.30;0.30;;;9.90;99.90;;;;;;5046687;28;20044;-66
2023/09/24 06:16:02;;;;;;;0.40;0.40;;;10.00;99.90;;;;;;5044578;28;20123;-66
2023/09/24 06:18:28;;;;;;;0.20;0.20;;;10.00;99.90;;;;;;5043693;28;20476;-67
2023/09/24 06:20:54;;;;;;;2.20;0.88;;;10.10;99.90;;;;;;5041177;28;20387;-67
2023/09/24 06:23:20;;;;;;;0.52;0.52;;;10.10;99.90;;;;;;5049684;28;20045;-66
2023/09/24 06:25:46;;;;;;;1.33;0.32;;;10.10;99.90;;;;;;5040788;28;20041;-67
2023/09/24 06:28:11;;;;;;;0.52;0.52;;;10.10;99.90;;;;;;5042770;28;20517;-67
2023/09/24 06:30:38;;;;;;;0.70;0.70;;;10.20;99.90;;;;;;5044379;28;20086;-67
2023/09/24 06:33:07;;;;;;;1.45;1.23;;;10.20;99.90;;;;;;5044400;28;20121;-67
2023/09/24 06:35:37;;;;;;;0.73;0.68;;;10.30;99.90;;;;;;5045233;28;20039;-66
2023/09/24 06:38:02;;;;;;;2.25;0.55;;;10.30;99.90;;;;;;5075981;28;20569;-66
2023/09/24 06:40:28;;;;;;;0.40;0.40;;;10.40;99.90;;;;;;5042896;28;20032;-66
2023/09/24 06:42:55;;;;;;;0.50;0.47;;;10.40;99.90;;;;;;5046635;28;20073;-66
2023/09/24 06:45:20;;;;;;;1.65;0.63;;;10.40;99.90;;;;;;5042475;28;20045;-67
2023/09/24 06:47:46;;;;;;;0.28;0.28;;;10.50;99.90;;;;;;5067096;28;20037;-67
2023/09/24 06:50:12;;;;;;;0.30;0.30;;;10.50;99.90;;;;;;5037795;28;20045;-66
2023/09/24 06:52:39;;;;;;;0.60;0.60;;;10.60;99.90;;;;;;5044054;28;20514;-67
2023/09/24 06:55:06;;;;;;;0.75;0.63;;;10.60;99.90;;;;;;5048777;28;20037;-67
2023/09/24 06:57:32;;;;;;;1.05;0.50;;;10.70;99.90;;;;;;5079682;28;20049;-66
2023/09/24 06:59:57;;;;;;;2.20;1.75;;;10.70;99.90;;;;;;5048605;28;20037;-67
2023/09/24 07:02:23;;;;;;;0.85;0.85;;;10.80;99.90;;;;;;5038773;28;20048;-67
2023/09/24 07:04:50;;;;;;;9.32;2.20;;;10.90;99.90;;;;;;5048142;28;20344;-67
2023/09/24 07:07:16;;;;;;;1.27;0.88;;;10.90;99.90;;;;;;5067947;28;20052;-67
2023/09/24 07:09:41;;;;;;;1.27;1.05;;;11.00;99.90;;;;;;5037023;28;20047;-66
2023/09/24 07:12:07;;;;;;;1.33;0.93;;;11.00;99.90;;;;;;5056383;28;20483;-67
2023/09/24 07:14:32;;;;;;;0.60;0.50;;;11.10;99.90;;;;;;5041248;28;20534;-67
2023/09/24 07:16:58;;;;;;;0.38;0.30;;;11.20;99.90;;;;;;5051489;28;20044;-66
2023/09/24 07:19:24;;;;;;;0.70;0.55;;;11.20;99.90;;;;;;5049646;28;20045;-66
2023/09/24 07:21:49;;;;;;;0.65;0.65;;;11.30;99.90;;;;;;5037276;28;20033;-66
2023/09/24 07:24:15;;;;;;;0.80;0.55;;;11.30;99.90;;;;;;5047822;28;20032;-66
2023/09/24 07:26:42;;;;;;;3.25;1.05;;;11.30;99.90;;;;;;5051178;28;20502;-66
2023/09/24 07:29:08;;;;;;;0.75;0.50;;;11.40;99.90;;;;;;5048631;28;20043;-65
2023/09/24 07:31:34;;;;;;;0.22;0.22;;;11.50;99.90;;;;;;5042368;28;20049;-65
2023/09/24 07:34:00;;;;;;;1.17;0.70;;;11.60;99.90;;;;;;5045424;28;20040;-66
2023/09/24 07:36:26;;;;;;;0.30;0.30;;;11.60;99.90;;;;;;5069215;28;20029;-65
2023/09/24 07:38:52;;;;;;;0.22;0.22;;;11.70;99.90;;;;;;5051550;28;20028;-65
2023/09/24 07:41:21;;;;;;;0.88;0.80;;;11.70;99.90;;;;;;5044533;28;20048;-66
2023/09/24 07:43:47;;;;;;;1.95;1.85;;;11.80;99.90;;;;;;5048440;28;20430;-66
2023/09/24 07:46:14;;;;;;;0.63;0.63;;;11.80;99.90;;;;;;5050181;28;20086;-66
2023/09/24 07:48:43;;;;;;;2.10;0.82;;;11.90;99.90;;;;;;5028659;28;20034;-66
2023/09/24 07:51:09;;;;;;;0.52;0.43;;;12.00;99.90;;;;;;5017196;28;20132;-67
2023/09/24 07:53:35;;;;;;;0.68;0.68;;;12.10;99.90;;;;;;5023839;28;20051;-67
2023/09/24 07:56:07;;;;;;;0.98;0.55;;;12.20;99.90;;;;;;5055751;28;20417;-67
2023/09/24 07:58:33;;;;;;;0.70;0.40;;;12.30;99.90;;;;;;5053035;28;20029;-67
2023/09/24 08:01:06;;;;;;;3.03;0.60;;;12.40;99.90;;;;;;5027347;28;20349;-67
2023/09/24 08:03:33;;;;;;;0.32;0.30;;;12.50;99.90;;;;;;5033185;28;20041;-67
2023/09/24 08:05:59;;;;;;;0.57;0.45;;;12.60;99.90;;;;;;5020376;28;20099;-67
2023/09/24 08:08:26;;;;;;;0.40;0.40;;;12.60;99.90;;;;;;5043650;28;20047;-67
2023/09/24 08:10:52;;;;;;;0.40;0.40;;;12.70;99.90;;;;;;5035021;28;20476;-67
2023/09/24 08:13:19;;;;;;;0.50;0.30;;;12.80;99.90;;;;;;5032843;28;20056;-67
2023/09/24 08:15:45;;;;;;;0.80;0.80;;;12.80;99.90;;;;;;5024603;28;20472;-67
2023/09/24 08:18:12;;;;;;;2.08;0.70;;;12.90;99.90;;;;;;5038264;28;20041;-67
2023/09/24 08:20:39;;;;;;;0.25;0.25;;;12.90;99.90;;;;;;5045214;28;20488;-67
2023/09/24 08:23:04;;;;;;;1.30;1.30;;;13.00;99.90;;;;;;5027633;28;20511;-67
2023/09/24 08:25:31;;;;;;;0.10;0.10;;;13.00;99.90;;;;;;5014073;28;20083;-67
2023/09/24 08:27:57;;;;;;;0.32;0.32;;;13.10;99.90;;;;;;5033354;28;20061;-67
2023/09/24 08:30:23;;;;;;;0.60;0.57;;;13.20;99.90;;;;;;5057497;28;20562;-67
2023/09/24 08:32:49;;;;;;;1.10;0.32;;;13.30;99.90;;;;;;5018993;28;20119;-67
2023/09/24 08:35:14;;;;;;;1.17;0.75;;;13.40;99.90;;;;;;5033391;28;20041;-67
2023/09/24 08:37:40;;;;;;;0.95;0.80;;;13.40;99.90;;;;;;5020346;28;20041;-67
2023/09/24 08:40:09;;;;;;;0.75;0.75;;;13.50;99.90;;;;;;5062123;28;20128;-67
2023/09/24 08:42:36;;;;;;;0.88;0.60;;;13.50;99.90;;;;;;5012833;28;20049;-67
2023/09/24 08:45:13;;;;;;;0.98;0.98;;;13.60;99.90;;;;;;5030293;28;20049;-67
2023/09/24 08:47:39;;;;;;;2.35;0.95;;;13.60;99.90;;;;;;5067914;28;20047;-69
2023/09/24 08:50:06;;;;;;;0.28;0.28;;;13.70;99.90;;;;;;5032586;28;20048;-67
2023/09/24 08:52:35;;;;;;;0.25;0.20;;;13.80;99.90;;;;;;5076280;28;20044;-67
2023/09/24 08:55:05;;;;;;;0.30;0.30;;;13.80;99.90;;;;;;5044573;28;20539;-67
2023/09/24 08:57:34;;;;;;;1.20;0.77;;;13.90;99.90;;;;;;5042128;28;20503;-67
2023/09/24 09:00:00;;;;;;;0.80;0.52;;;14.00;99.90;;;;;;5082315;28;20035;-68
2023/09/24 09:02:26;;;;;;;1.17;1.15;;;14.10;99.90;;;;;;5032204;28;20049;-68
2023/09/24 09:04:52;;;;;;;0.32;0.22;;;14.10;99.90;;;;;;5040937;28;20044;-67
2023/09/24 09:07:18;;;;;;;0.45;0.32;;;14.10;99.90;;;;;;5037996;28;20197;-68
2023/09/24 09:09:57;;;;;;;0.63;0.63;;;14.20;99.90;;;;;;5045188;28;20399;-68
2023/09/24 09:12:24;;;;;;;0.20;0.20;;;14.20;99.90;;;;;;5038628;28;20044;-68
2023/09/24 09:14:50;;;;;;;1.23;0.95;;;14.30;99.90;;;;;;5045740;28;20037;-70
2023/09/24 09:17:16;;;;;;;0.95;0.55;;;14.30;99.90;;;;;;5035063;28;20387;-68
2023/09/24 09:19:52;;;;;;;0.65;0.20;;;14.40;99.90;;;;;;5047239;28;20419;-68
2023/09/24 09:22:19;;;;;;;0.43;0.35;;;14.40;99.90;;;;;;5032479;28;20048;-67
2023/09/24 09:24:47;;;;;;;2.08;0.40;;;14.50;99.90;;;;;;5038410;28;20049;-68
2023/09/24 09:27:13;;;;;;;1.70;0.60;;;14.60;99.90;;;;;;5037406;28;20068;-68
2023/09/24 09:29:38;;;;;;;0.90;0.70;;;14.60;99.90;;;;;;5041580;28;20069;-68
2023/09/24 09:32:04;;;;;;;1.05;1.02;;;14.70;99.90;;;;;;5041281;28;20048;-68
2023/09/24 09:34:29;;;;;;;0.70;0.70;;;14.80;99.90;;;;;;5043160;28;20091;-66
2023/09/24 09:37:21;;;;;;;0.13;0.13;;;14.80;99.90;;;;;;5043295;28;20036;-66
2023/09/24 09:39:47;;;;;;;0.40;0.40;;;14.90;99.90;;;;;;5038511;28;20056;-67
2023/09/24 09:42:19;;;;;;;0.55;0.32;;;14.90;99.90;;;;;;5042818;28;20044;-66
2023/09/24 09:44:47;;;;;;;3.33;0.95;;;15.00;99.90;;;;;;5069734;28;20094;-67
2023/09/24 09:47:16;;;;;;;0.30;0.30;;;15.10;99.90;;;;;;5034981;28;20045;-68
2023/09/24 09:49:48;;;;;;;0.63;0.63;;;15.10;99.90;;;;;;5043523;28;20074;-67
2023/09/24 09:52:19;;;;;;;0.27;0.27;;;15.20;99.90;;;;;;5036948;28;20128;-66
2023/09/24 09:54:46;;;;;;;4.85;2.78;;;15.30;99.90;;;;;;5044177;28;20106;-67
2023/09/24 09:57:11;;;;;;;0.35;0.35;;;15.30;99.90;;;;;;5033856;28;20048;-67
2023/09/24 09:59:38;;;;;;;0.22;0.22;;;15.40;99.90;;;;;;5074699;28;20036;-66
2023/09/24 10:02:04;;;;;;;0.30;0.30;;;15.40;99.90;;;;;;5029665;28;20044;-67
2023/09/24 10:04:31;;;;;;;0.30;0.30;;;15.50;99.90;;;;;;5040403;28;20328;-67
2023/09/24 10:06:57;;;;;;;1.08;0.95;;;15.60;99.90;;;;;;5042672;28;20053;-67
2023/09/24 10:09:32;;;;;;;1.15;1.13;;;15.70;99.90;;;;;;5069706;28;20355;-67
2023/09/24 10:11:58;;;;;;;1.10;0.93;;;15.70;99.90;;;;;;5039243;28;20048;-67
2023/09/24 10:14:38;;;;;;;2.17;0.65;;;15.80;99.90;;;;;;5035010;28;20391;-67
2023/09/24 10:17:15;;;;;;;0.50;0.43;;;15.80;99.90;;;;;;5051736;28;20052;-67
2023/09/24 10:19:53;;;;;;;1.08;1.05;;;15.90;99.90;;;;;;5034809;28;20040;-67
2023/09/24 10:22:27;;;;;;;1.17;0.50;;;16.00;99.90;;;;;;5033472;28;20040;-67
2023/09/24 10:24:53;;;;;;;0.20;0.20;;;16.10;99.90;;;;;;5042840;28;20040;-67
2023/09/24 10:27:25;;;;;;;0.38;0.30;;;16.10;99.90;;;;;;5048439;28;20069;-67
2023/09/24 10:29:55;;;;;;;0.10;0.10;;;16.10;99.90;;;;;;5061399;28;20086;-67
2023/09/24 10:32:22;;;;;;;0.20;0.20;;;16.20;99.90;;;;;;5043574;28;20056;-68
2023/09/24 10:34:54;;;;;;;3.10;1.23;;;16.20;99.90;;;;;;5044821;28;20045;-67
2023/09/24 10:37:29;;;;;;;0.20;0.20;;;16.30;99.90;;;;;;5073378;28;20044;-67
2023/09/24 10:39:58;;;;;;;0.47;0.47;;;16.30;99.90;;;;;;5044885;28;20125;-67
2023/09/24 10:42:24;;;;;;;0.38;0.38;;;16.40;99.90;;;;;;5040372;28;20126;-67
2023/09/24 10:45:12;;;;;;;2.72;0.57;;;16.40;99.90;;;;;;5042670;28;20048;-67
2023/09/24 10:47:44;;;;;;;0.20;0.20;;;16.50;99.90;;;;;;5042333;28;20051;-67
2023/09/24 10:50:20;;;;;;;0.63;0.63;;;16.60;99.90;;;;;;5044666;28;20387;-67
2023/09/24 10:52:50;;;;;;;0.10;0.10;;;16.70;99.90;;;;;;5037800;28;20036;-67
2023/09/24 10:55:17;;;;;;;0.15;0.15;;;16.80;99.90;;;;;;5040473;28;20041;-67
2023/09/24 10:57:46;;;;;;;0.30;0.30;;;16.90;99.90;;;;;;5040552;28;20694;-68
2023/09/24 11:00:16;;;;;;;0.20;0.20;;;16.90;99.90;;;;;;5071054;28;20064;-67
2023/09/24 11:02:43;;;;;;;0.68;0.57;;;17.00;99.90;;;;;;5036444;28;20102;-68
2023/09/24 11:05:09;;;;;;;0.30;0.30;;;17.00;99.90;;;;;;5042353;28;20051;-68
2023/09/24 11:07:35;;;;;;;0.45;0.45;;;17.00;99.90;;;;;;5041108;28;20052;-67
2023/09/24 11:10:00;;;;;;;0.20;0.20;;;17.00;99.90;;;;;;5042872;28;20120;-68
2023/09/24 11:12:26;;;;;;;2.85;0.50;;;17.10;99.90;;;;;;5042508;28;20048;-68
2023/09/24 11:14:55;;;;;;;0.45;0.45;;;17.10;99.90;;;;;;5042283;28;20501;-68
2023/09/24 11:17:22;;;;;;;0.10;0.10;;;17.10;99.90;;;;;;5044425;28;20059;-67
2023/09/24 11:19:49;;;;;;;0.38;0.28;;;17.10;99.90;;;;;;5049980;28;20047;-67
2023/09/24 11:22:19;;;;;;;0.10;0.10;;;17.10;99.90;;;;;;5036444;28;20051;-67
2023/09/24 11:24:47;;;;;;;0.20;0.20;;;17.10;99.90;;;;;;5050728;28;20449;-68
2023/09/24 11:27:12;;;;;;;0.17;0.17;;;17.10;99.90;;;;;;5038025;28;20420;-67
2023/09/24 11:29:38;;;;;;;1.02;1.02;;;17.10;99.90;;;;;;5026418;28;20032;-67
2023/09/24 11:32:04;;;;;;;0.20;0.20;;;17.20;99.90;;;;;;5042026;28;20048;-67
2023/09/24 11:34:29;;;;;;;0.65;0.40;;;17.20;99.90;;;;;;5045109;28;20043;-66
2023/09/24 11:36:56;;;;;;;0.20;0.20;;;17.20;99.90;;;;;;5038238;28;20119;-66
2023/09/24 11:39:22;;;;;;;2.08;1.27;;;17.20;99.90;;;;;;5042565;28;20037;-67
2023/09/24 11:41:49;;;;;;;0.15;0.15;;;17.20;99.90;;;;;;5039830;28;20040;-67
2023/09/24 11:44:14;;;;;;;0.63;0.50;;;17.30;99.90;;;;;;5040222;28;20247;-67
2023/09/24 11:46:40;;;;;;;0.10;0.10;;;17.30;99.90;;;;;;5036298;28;20063;-67
2023/09/24 11:49:06;;;;;;;0.98;0.52;;;17.40;99.90;;;;;;5044051;28;20028;-67
2023/09/24 11:51:32;;;;;;;0.10;0.10;;;17.40;99.90;;;;;;5040705;28;20123;-67
2023/09/24 11:53:59;;;;;;;1.83;0.60;;;17.50;99.90;;;;;;5045608;28;20036;-67
2023/09/24 11:56:25;;;;;;;0.20;0.20;;;17.50;99.90;;;;;;5042493;28;20131;-67
2023/09/24 11:58:51;;;;;;;0.28;0.28;;;17.60;99.90;;;;;;5039299;28;20036;-67
2023/09/24 12:01:17;;;;;;;0.10;0.10;;;17.60;99.90;;;;;;5067753;28;20505;-66
2023/09/24 12:03:42;;;;;;;0.45;0.45;;;17.70;99.90;;;;;;5042042;28;20456;-66
2023/09/24 12:06:08;;;;;;;0.20;0.20;;;17.60;99.90;;;;;;5042798;28;20483;-67
2023/09/24 12:08:37;;;;;;;0.25;0.25;;;17.50;99.90;;;;;;5040438;28;20032;-67
2023/09/24 12:11:03;;;;;;;0.70;0.55;;;17.50;99.90;;;;;;5044254;28;20047;-66
2023/09/24 12:13:30;;;;;;;0.32;0.25;;;17.40;99.90;;;;;;5039309;28;20044;-66
2023/09/24 12:15:56;;;;;;;0.40;0.40;;;17.30;99.90;;;;;;5036578;28;20041;-66
2023/09/24 12:18:22;;;;;;;0.17;0.17;;;17.30;99.90;;;;;;5039364;28;20040;-67
2023/09/24 12:20:47;;;;;;;0.17;0.17;;;17.30;99.90;;;;;;5041055;28;20067;-67
2023/09/24 12:23:13;;;;;;;0.15;0.13;;;17.30;99.90;;;;;;5027984;28;20048;-67
2023/09/24 12:25:42;;;;;;;6.65;1.20;;;17.30;99.90;;;;;;5041164;28;20040;-67
2023/09/24 12:28:10;;;;;;;0.10;0.10;;;17.40;99.90;;;;;;5038462;28;20044;-67
2023/09/24 12:30:36;;;;;;;0.10;0.10;;;17.40;99.90;;;;;;5044727;28;20058;-67
2023/09/24 12:33:02;;;;;;;0.65;0.28;;;17.30;99.90;;;;;;5040414;28;20075;-67
2023/09/24 12:35:28;;;;;;;0.30;0.30;;;17.20;99.90;;;;;;5041435;28;20068;-67
2023/09/24 12:37:54;;;;;;;0.20;0.20;;;17.20;99.90;;;;;;5068621;28;20064;-67
2023/09/24 12:40:21;;;;;;;0.10;0.10;;;17.20;99.90;;;;;;5044208;28;20040;-67
2023/09/24 12:42:47;;;;;;;0.38;0.38;;;17.20;99.90;;;;;;5039794;28;20048;-67
2023/09/24 12:45:14;;;;;;;0.65;0.65;;;17.30;99.90;;;;;;5063744;28;20025;-67
2023/09/24 12:47:40;;;;;;;0.17;0.10;;;17.40;99.90;;;;;;5032715;28;20040;-67
2023/09/24 12:50:08;;;;;;;0.15;0.15;;;17.50;99.90;;;;;;5036856;28;20974;-66
2023/09/24 12:52:35;;;;;;;0.15;0.15;;;17.60;99.90;;;;;;5042653;28;20048;-67